CLRO2: Verdigris River, Claremore, OK

Data processed at Wed Feb 13 2019 23:32


All information presented herein is the property of the government of the United States of America and may be revised or deleted at any time without prior notice.
Dissemination of this information without the expressed written consent of the Public Affairs Office, Tulsa District U.S. Army Corps of Engineers is strictly prohibited.
These data are gathered electronically and, as presented, have not undergone any form of quality control. These data are not guaranteed to be valid or correct.
Go to home page.
Go to station list.
Go to home page.

Upstream stations:

Downstream station:
Previous Day
Next Day
Current Day
    
SHEF ID:       CLRO2     Verdigris River near Claremore,
STATION TYPE:  
Regulating: Stage =    35.00, Flow =    54965

               PRECIP     STAGE  STAGE(2)  RIV-FLOW  BAT-LOAD
                   in        ft        ft       cfs      volt
              Ccp-Rev   Ccp-Rev   Ccp-Rev   Ccp-Rev   Ccp-Rev
(US/Central)
02/13 00:00      0.00      7.15      7.18      3899     12.81
02/13 01:00      0.00      7.16      7.18      3915     12.81
02/13 02:00      0.00      7.16      7.17      3915     12.81
02/13 03:00      0.00      7.15      7.17      3899     12.73
02/13 04:00      0.00      7.14      7.16      3883     12.73
02/13 05:00      0.00      7.14      7.15      3883     12.73
02/13 06:00      0.00      7.14      7.15      3883     12.73
02/13 07:00      0.00      7.14      7.14      3883     12.65
02/13 08:00      0.00      7.13      7.14      3867     12.73
02/13 09:00      0.00      7.13      7.04      3867     13.68
02/13 10:00      0.00      7.13      6.99      3867     13.76
02/13 11:00      0.00      7.11      6.95      3834     13.84
02/13 12:00      0.00      7.11      6.95      3834     13.84
02/13 13:00      0.00      7.11      6.93      3834     13.68
02/13 14:00      0.00      7.08      6.97      3786     13.60
02/13 15:00      0.00      7.09      6.98      3802     13.53
02/13 16:00      0.00      7.07      6.93      3771     13.44
02/13 17:00      0.00      7.08      6.95      3786     13.37
02/13 18:00      0.00      7.07      7.04      3771     13.29
02/13 19:00      0.00      7.07      6.96      3771     12.97
02/13 20:00      0.00      7.06      6.95      3755     12.89
02/13 21:00      0.00      7.04      6.92      3723     12.89
02/13 22:00      0.00      7.04      6.98      3723     12.89
02/13 23:00      ----      ----      ----      ----      ----